Terminal Aerodrome Forecast
Issued by NWS Wilmington, NC

Home | Current Version | Previous Version | Text Only | Print | Product List | Glossary On
Versions: 1 2 3 4 5 6 7 8 9
000
FTUS42 KILM 272300
TAFMYR
TAF
KMYR 272322Z 2800/2824 00000KT P6SM BKN250
     FM280900 VRB02KT 4SM BR SCT025 BKN150
     FM281400 21009KT P6SM BKN020 BKN100
      AMD LTD TO CLD VIS AND WIND 2804/2811=

USA.gov is the U.S. government's official web portal to all federal, state and local government web resources and services.